createdAt,value
2023-02-16T00:00:32.136Z,100211.63
2023-02-16T00:01:35.497Z,100212.44
2023-02-16T00:02:37.033Z,100209.72
2023-02-16T00:03:38.658Z,100217.69
2023-02-16T00:04:40.242Z,100215.22
2023-02-16T00:05:41.797Z,100210.91
2023-02-16T00:06:43.306Z,100214.13
2023-02-16T00:07:44.876Z,100207.19
2023-02-16T00:08:48.736Z,100210.50
2023-02-16T00:09:50.274Z,100214.03
2023-02-16T00:10:51.873Z,100208.75
2023-02-16T00:11:53.701Z,100210.66
2023-02-16T00:12:55.306Z,100204.72
2023-02-16T00:13:56.913Z,100212.34
2023-02-16T00:14:58.568Z,100207.81
2023-02-16T00:16:00.203Z,100211.22
2023-02-16T00:17:02.377Z,100201.69
2023-02-16T00:18:14.246Z,100202.53
2023-02-16T00:19:20.317Z,100209.53
2023-02-16T00:20:21.890Z,100214.00
2023-02-16T00:21:23.530Z,100210.41
2023-02-16T00:22:25.575Z,100212.88
2023-02-16T00:23:27.078Z,100210.53
2023-02-16T00:24:30.152Z,100210.66
2023-02-16T00:25:31.676Z,100208.88
2023-02-16T00:26:34.900Z,100199.50
2023-02-16T00:27:37.754Z,100204.66
2023-02-16T00:28:39.364Z,100206.38
2023-02-16T00:29:40.938Z,100198.84
2023-02-16T00:30:44.164Z,100196.19
2023-02-16T00:31:45.788Z,100201.31
2023-02-16T00:32:47.393Z,100197.31
2023-02-16T00:33:49.560Z,100201.59
2023-02-16T00:34:54.683Z,100204.09
2023-02-16T00:35:56.532Z,100205.13
2023-02-16T00:37:00.159Z,100200.94
2023-02-16T00:38:02.215Z,100202.59
2023-02-16T00:39:06.773Z,100197.34
2023-02-16T00:40:09.020Z,100204.34
2023-02-16T00:41:22.799Z,100201.63
2023-02-16T00:42:29.251Z,100194.09
2023-02-16T00:43:31.050Z,100196.69
2023-02-16T00:44:41.377Z,100196.63
2023-02-16T00:45:42.931Z,100194.94
2023-02-16T00:46:45.331Z,100196.66
2023-02-16T00:47:50.950Z,100197.56
2023-02-16T00:48:52.606Z,100194.94
2023-02-16T00:49:54.636Z,100192.28
2023-02-16T00:50:56.157Z,100197.66
2023-02-16T00:51:57.964Z,100193.41
2023-02-16T00:53:00.119Z,100193.44
2023-02-16T00:54:01.612Z,100191.72
2023-02-16T00:55:10.249Z,100190.81
2023-02-16T00:56:17.594Z,100183.81
2023-02-16T00:57:20.118Z,100185.50
2023-02-16T00:58:27.560Z,100180.19
2023-02-16T00:59:29.149Z,100184.50
2023-02-16T01:00:39.636Z,100181.09
2023-02-16T01:01:41.197Z,100179.31
2023-02-16T01:02:45.285Z,100175.28
2023-02-16T01:03:47.001Z,100177.06
2023-02-16T01:04:48.596Z,100188.19
2023-02-16T01:05:50.549Z,100175.44
2023-02-16T01:06:52.103Z,100178.66
2023-02-16T01:07:53.720Z,100174.34
2023-02-16T01:09:00.700Z,100175.13
2023-02-16T01:10:02.274Z,100175.97
2023-02-16T01:11:05.772Z,100175.00
2023-02-16T01:12:17.901Z,100184.50
2023-02-16T01:13:19.563Z,100187.28
2023-02-16T01:14:21.182Z,100184.72
2023-02-16T01:15:25.820Z,100190.84
2023-02-16T01:16:36.607Z,100183.16
2023-02-16T01:17:38.323Z,100178.94
2023-02-16T01:18:39.868Z,100172.94
2023-02-16T01:19:41.388Z,100178.22
2023-02-16T01:20:42.955Z,100173.84
2023-02-16T01:21:44.508Z,100173.06
2023-02-16T01:22:46.260Z,100176.47
2023-02-16T01:23:47.796Z,100173.84
2023-02-16T01:24:49.318Z,100171.13
2023-02-16T01:25:50.818Z,100175.56
2023-02-16T01:26:52.476Z,100177.34
2023-02-16T01:27:54.057Z,100170.38
2023-02-16T01:28:55.740Z,100176.47
2023-02-16T01:29:57.321Z,100168.78
2023-02-16T01:30:58.869Z,100171.16
2023-02-16T01:32:00.662Z,100170.47
2023-02-16T01:33:02.274Z,100173.06
2023-02-16T01:34:03.796Z,100167.13
2023-02-16T01:35:05.880Z,100169.59
2023-02-16T01:36:21.830Z,100163.38
2023-02-16T01:37:23.359Z,100159.91
2023-02-16T01:38:27.849Z,100162.69
2023-02-16T01:39:29.450Z,100161.13
2023-02-16T01:40:40.834Z,100159.50
2023-02-16T01:42:13.487Z,100161.84
2023-02-16T01:43:40.743Z,100156.81
2023-02-16T01:44:48.213Z,100158.53
2023-02-16T01:46:14.989Z,100163.19
2023-02-16T01:47:27.124Z,100156.09
2023-02-16T01:48:30.975Z,100157.91
2023-02-16T01:49:32.493Z,100160.50
2023-02-16T01:50:48.088Z,100157.00
2023-02-16T01:52:12.315Z,100155.22
2023-02-16T01:53:18.624Z,100151.72
2023-02-16T01:54:35.864Z,100143.16
2023-02-16T01:55:43.387Z,100149.19
2023-02-16T01:56:52.624Z,100149.22
2023-02-16T01:58:16.085Z,100146.78
2023-02-16T01:59:41.211Z,100143.56
2023-02-16T02:00:51.631Z,100146.97
2023-02-16T02:01:57.621Z,100138.44
2023-02-16T02:03:04.498Z,100141.84
2023-02-16T02:04:35.989Z,100138.34
2023-02-16T02:05:37.581Z,100140.25
2023-02-16T02:06:40.216Z,100144.53
2023-02-16T02:08:03.057Z,100142.69
2023-02-16T02:09:25.764Z,100142.75
2023-02-16T02:10:45.994Z,100142.63
2023-02-16T02:12:00.315Z,100141.06
2023-02-16T02:13:35.743Z,100139.38
2023-02-16T02:14:39.792Z,100135.88
2023-02-16T02:15:41.764Z,100142.00
2023-02-16T02:17:14.717Z,100129.94
2023-02-16T02:18:16.546Z,100140.41
2023-02-16T02:19:18.036Z,100128.34
2023-02-16T02:20:22.407Z,100136.88
2023-02-16T02:21:48.813Z,100144.56
2023-02-16T02:23:05.545Z,100143.84
2023-02-16T02:24:16.580Z,100142.19
2023-02-16T02:26:04.234Z,100145.81
2023-02-16T02:27:05.705Z,100141.31
2023-02-16T02:28:36.649Z,100147.19
2023-02-16T02:29:50.154Z,100149.16
2023-02-16T02:31:12.563Z,100143.22
2023-02-16T02:32:35.399Z,100143.31
2023-02-16T02:33:52.872Z,100140.63
2023-02-16T02:35:00.371Z,100141.69
2023-02-16T02:36:28.736Z,100144.16
2023-02-16T02:37:37.146Z,100147.47
2023-02-16T02:38:43.824Z,100139.78
2023-02-16T02:40:24.678Z,100137.34
2023-02-16T02:41:38.860Z,100134.56
2023-02-16T02:43:01.974Z,100143.31
2023-02-16T02:44:08.469Z,100144.03
2023-02-16T02:45:16.600Z,100144.09
2023-02-16T02:46:33.193Z,100137.16
2023-02-16T02:47:43.434Z,100137.13
2023-02-16T02:48:44.969Z,100142.28
2023-02-16T02:49:51.620Z,100132.78
2023-02-16T02:50:58.424Z,100143.19
2023-02-16T02:52:00.629Z,100144.91
2023-02-16T02:53:08.359Z,100143.19
2023-02-16T02:54:28.571Z,100152.53
2023-02-16T02:55:38.879Z,100152.66
2023-02-16T02:56:47.682Z,100152.66
2023-02-16T02:57:50.304Z,100155.09
2023-02-16T02:58:56.434Z,100156.03
2023-02-16T03:00:05.895Z,100158.59
2023-02-16T03:01:08.878Z,100159.41
2023-02-16T03:02:12.186Z,100151.56
2023-02-16T03:03:32.693Z,100150.72
2023-02-16T03:04:34.455Z,100143.66
2023-02-16T03:05:38.950Z,100146.38
2023-02-16T03:06:45.892Z,100139.41
2023-02-16T03:07:51.408Z,100139.47
2023-02-16T03:09:02.085Z,100141.06
2023-02-16T03:10:03.757Z,100139.47
2023-02-16T03:11:15.389Z,100143.75
2023-02-16T03:12:16.990Z,100137.91
2023-02-16T03:13:24.828Z,100140.41
2023-02-16T03:14:32.934Z,100144.00
2023-02-16T03:15:35.588Z,100135.31
2023-02-16T03:16:44.640Z,100136.16
2023-02-16T03:17:46.546Z,100139.63
2023-02-16T03:18:48.111Z,100133.63
2023-02-16T03:19:51.930Z,100136.13
2023-02-16T03:20:53.688Z,100141.31
2023-02-16T03:21:56.800Z,100136.22
2023-02-16T03:22:59.475Z,100131.94
2023-02-16T03:24:05.317Z,100139.72
2023-02-16T03:25:06.869Z,100134.66
2023-02-16T03:26:08.400Z,100130.50
2023-02-16T03:27:10.515Z,100129.50
2023-02-16T03:28:13.850Z,100133.91
2023-02-16T03:29:16.142Z,100134.81
2023-02-16T03:30:19.132Z,100133.19
2023-02-16T03:31:24.266Z,100133.06
2023-02-16T03:32:25.984Z,100136.59
2023-02-16T03:33:28.488Z,100131.34
2023-02-16T03:34:31.874Z,100124.34
2023-02-16T03:35:35.122Z,100123.50
2023-02-16T03:36:39.344Z,100120.91
2023-02-16T03:37:42.265Z,100122.63
2023-02-16T03:38:43.785Z,100121.66
2023-02-16T03:39:45.364Z,100117.34
2023-02-16T03:40:49.744Z,100124.31
2023-02-16T03:41:53.962Z,100122.63
2023-02-16T03:43:06.688Z,100121.06
2023-02-16T03:44:08.267Z,100119.22
2023-02-16T03:45:09.784Z,100118.34
2023-02-16T03:46:14.202Z,100104.53
2023-02-16T03:47:15.728Z,100106.41
2023-02-16T03:48:17.810Z,100108.03
2023-02-16T03:49:19.706Z,100109.72
2023-02-16T03:50:21.741Z,100105.38
2023-02-16T03:51:23.266Z,100114.13
2023-02-16T03:52:24.787Z,100111.41
2023-02-16T03:53:26.370Z,100113.16
2023-02-16T03:54:27.939Z,100120.06
2023-02-16T03:55:29.473Z,100111.25
2023-02-16T03:56:31.067Z,100112.06
2023-02-16T03:57:32.592Z,100107.78
2023-02-16T03:58:34.280Z,100110.44
2023-02-16T03:59:35.780Z,100110.47
2023-02-16T04:00:38.075Z,100111.28
2023-02-16T04:01:39.573Z,100111.16
2023-02-16T04:02:41.809Z,100112.84
2023-02-16T04:03:43.308Z,100122.19
2023-02-16T04:04:44.802Z,100130.72
2023-02-16T04:05:46.352Z,100129.03
2023-02-16T04:06:47.893Z,100129.06
2023-02-16T04:07:49.390Z,100125.72
2023-02-16T04:08:50.909Z,100125.91
2023-02-16T04:09:52.412Z,100124.22
2023-02-16T04:10:53.911Z,100125.88
2023-02-16T04:11:55.418Z,100120.72
2023-02-16T04:12:56.938Z,100120.72
2023-02-16T04:13:58.460Z,100115.66
2023-02-16T04:14:59.972Z,100115.66
2023-02-16T04:16:01.495Z,100113.06
2023-02-16T04:17:03.002Z,100118.13
2023-02-16T04:18:04.674Z,100118.88
2023-02-16T04:19:06.252Z,100123.16
2023-02-16T04:20:12.028Z,100124.88
2023-02-16T04:21:13.530Z,100121.25
2023-02-16T04:22:15.314Z,100108.34
2023-02-16T04:23:16.877Z,100115.38
2023-02-16T04:24:18.673Z,100113.72
2023-02-16T04:25:20.972Z,100107.75
2023-02-16T04:26:22.673Z,100100.81
2023-02-16T04:27:24.204Z,100102.56
2023-02-16T04:28:25.720Z,100102.66
2023-02-16T04:29:27.357Z,100099.25
2023-02-16T04:30:30.692Z,100098.53
2023-02-16T04:31:32.379Z,100092.50
2023-02-16T04:32:33.976Z,100098.66
2023-02-16T04:33:35.497Z,100096.91
2023-02-16T04:34:37.025Z,100099.47
2023-02-16T04:35:38.578Z,100105.38
2023-02-16T04:36:40.101Z,100106.28
2023-02-16T04:37:41.902Z,100105.31
2023-02-16T04:38:43.407Z,100102.75
2023-02-16T04:39:44.903Z,100100.25
2023-02-16T04:40:46.387Z,100096.06
2023-02-16T04:41:47.964Z,100094.13
2023-02-16T04:42:49.521Z,100095.84
2023-02-16T04:43:51.045Z,100098.41
2023-02-16T04:44:52.573Z,100098.56
2023-02-16T04:45:54.274Z,100095.94
2023-02-16T04:46:56.326Z,100091.59
2023-02-16T04:47:57.962Z,100093.63
2023-02-16T04:48:59.508Z,100095.16
2023-02-16T04:50:01.208Z,100093.38
2023-02-16T04:51:05.111Z,100088.19
2023-02-16T04:52:06.887Z,100085.59
2023-02-16T04:53:08.504Z,100087.41
2023-02-16T04:54:10.087Z,100089.88
2023-02-16T04:55:11.605Z,100089.78
2023-02-16T04:56:13.772Z,100089.94
2023-02-16T04:57:15.529Z,100092.50
2023-02-16T04:58:17.356Z,100082.34
2023-02-16T04:59:18.882Z,100082.25
2023-02-16T05:00:20.587Z,100084.06
2023-02-16T05:01:24.231Z,100088.34
2023-02-16T05:02:25.829Z,100085.75
2023-02-16T05:03:27.520Z,100090.03
2023-02-16T05:04:29.272Z,100083.16
2023-02-16T05:05:31.035Z,100084.28
2023-02-16T05:06:32.684Z,100073.00
2023-02-16T05:07:34.250Z,100077.22
2023-02-16T05:08:35.792Z,100080.59
2023-02-16T05:09:37.298Z,100074.56
2023-02-16T05:10:38.811Z,100077.19
2023-02-16T05:11:40.328Z,100078.78
2023-02-16T05:12:41.833Z,100082.34
2023-02-16T05:13:43.371Z,100077.19
2023-02-16T05:14:45.006Z,100067.66
2023-02-16T05:15:46.673Z,100081.38
2023-02-16T05:16:48.259Z,100081.38
2023-02-16T05:17:49.797Z,100080.44
2023-02-16T05:18:51.299Z,100077.72
2023-02-16T05:19:58.696Z,100081.22
2023-02-16T05:21:00.248Z,100083.81
2023-02-16T05:22:02.052Z,100076.13
2023-02-16T05:23:03.589Z,100086.47
2023-02-16T05:24:10.704Z,100087.34
2023-02-16T05:25:12.602Z,100085.50
2023-02-16T05:26:14.132Z,100092.34
2023-02-16T05:27:21.511Z,100088.84
2023-02-16T05:28:23.136Z,100094.94
2023-02-16T05:29:24.741Z,100095.84
2023-02-16T05:30:26.341Z,100100.00
2023-02-16T05:31:28.993Z,100101.00
2023-02-16T05:32:30.576Z,100101.69
2023-02-16T05:33:32.066Z,100107.78
2023-02-16T05:34:33.562Z,100099.13
2023-02-16T05:35:35.135Z,100106.09
2023-02-16T05:36:36.790Z,100097.44
2023-02-16T05:37:38.883Z,100098.31
2023-02-16T05:38:41.596Z,100105.19
2023-02-16T05:39:43.693Z,100102.00
2023-02-16T05:40:45.210Z,100105.47
2023-02-16T05:41:46.706Z,100104.53
2023-02-16T05:42:53.450Z,100106.22
2023-02-16T05:43:58.753Z,100109.66
2023-02-16T05:45:00.236Z,100111.38
2023-02-16T05:46:07.013Z,100107.09
2023-02-16T05:47:08.626Z,100107.22
2023-02-16T05:48:10.171Z,100104.63
2023-02-16T05:49:12.272Z,100107.00
2023-02-16T05:50:13.798Z,100112.13
2023-02-16T05:51:15.371Z,100107.66
2023-02-16T05:52:16.940Z,100105.94
2023-02-16T05:53:18.449Z,100112.84
2023-02-16T05:54:20.006Z,100116.41
2023-02-16T05:55:21.529Z,100119.00
2023-02-16T05:56:23.787Z,100118.19
2023-02-16T05:57:25.301Z,100121.72
2023-02-16T05:58:26.856Z,100123.41
2023-02-16T05:59:28.476Z,100121.63
2023-02-16T06:00:30.401Z,100119.16
2023-02-16T06:01:31.918Z,100113.16
2023-02-16T06:02:33.526Z,100110.59
2023-02-16T06:03:35.337Z,100108.88
2023-02-16T06:04:36.897Z,100107.13
2023-02-16T06:05:38.429Z,100106.22
2023-02-16T06:06:40.317Z,100109.78
2023-02-16T06:07:41.844Z,100106.28
2023-02-16T06:08:44.003Z,100113.94
2023-02-16T06:09:45.547Z,100118.91
2023-02-16T06:10:49.331Z,100127.47
2023-02-16T06:11:50.816Z,100135.88
2023-02-16T06:12:52.632Z,100133.88
2023-02-16T06:13:55.031Z,100133.72
2023-02-16T06:14:56.505Z,100137.03
2023-02-16T06:15:58.049Z,100132.63
2023-02-16T06:16:59.629Z,100126.19
2023-02-16T06:18:01.114Z,100128.50
2023-02-16T06:19:03.690Z,100124.00
2023-02-16T06:20:05.935Z,100131.44
2023-02-16T06:21:07.758Z,100121.72
2023-02-16T06:22:09.254Z,100126.00
2023-02-16T06:23:13.362Z,100126.09
2023-02-16T06:24:15.304Z,100125.03
2023-02-16T06:25:17.037Z,100121.50
2023-02-16T06:26:18.920Z,100126.53
2023-02-16T06:27:20.593Z,100127.22
2023-02-16T06:28:22.061Z,100133.81
2023-02-16T06:29:23.545Z,100131.66
2023-02-16T06:30:25.904Z,100128.94
2023-02-16T06:31:27.882Z,100125.66
2023-02-16T06:32:29.590Z,100128.50
2023-02-16T06:33:31.488Z,100125.06
2023-02-16T06:34:32.965Z,100116.59
2023-02-16T06:35:34.892Z,100124.59
2023-02-16T06:36:36.444Z,100123.78
2023-02-16T06:37:37.981Z,100116.16
2023-02-16T06:38:39.897Z,100115.53
2023-02-16T06:39:41.396Z,100114.38
2023-02-16T06:40:42.925Z,100124.47
2023-02-16T06:41:44.460Z,100125.91
2023-02-16T06:42:46.141Z,100123.56
2023-02-16T06:43:47.643Z,100122.44
2023-02-16T06:44:49.199Z,100129.16
2023-02-16T06:45:50.773Z,100125.44
2023-02-16T06:46:52.361Z,100124.47
2023-02-16T06:47:53.884Z,100124.06
2023-02-16T06:48:55.863Z,100128.56
2023-02-16T06:49:57.374Z,100130.34
2023-02-16T06:50:59.145Z,100122.25
2023-02-16T06:52:00.605Z,100129.16
2023-02-16T06:53:02.149Z,100120.19
2023-02-16T06:54:03.678Z,100118.06
2023-02-16T06:55:05.426Z,100122.16
2023-02-16T06:56:06.962Z,100121.03
2023-02-16T06:57:08.486Z,100128.41
2023-02-16T06:58:10.117Z,100121.59
2023-02-16T06:59:12.349Z,100123.53
2023-02-16T07:00:14.618Z,100124.56
2023-02-16T07:01:16.935Z,100121.50
2023-02-16T07:02:18.488Z,100125.03
2023-02-16T07:03:19.993Z,100128.56
2023-02-16T07:04:21.512Z,100118.91
2023-02-16T07:05:23.464Z,100117.78
2023-02-16T07:06:27.890Z,100117.66
2023-02-16T07:07:29.393Z,100125.66
2023-02-16T07:08:30.971Z,100116.06
2023-02-16T07:09:32.646Z,100121.34
2023-02-16T07:10:48.680Z,100119.81
2023-02-16T07:11:51.206Z,100130.44
2023-02-16T07:12:52.701Z,100127.91
2023-02-16T07:13:54.284Z,100122.19
2023-02-16T07:14:55.775Z,100129.50
2023-02-16T07:15:57.385Z,100131.19
2023-02-16T07:16:58.969Z,100127.44
2023-02-16T07:18:00.498Z,100129.13
2023-02-16T07:19:02.039Z,100126.94
2023-02-16T07:20:04.533Z,100125.72
2023-02-16T07:21:07.114Z,100128.34
2023-02-16T07:22:08.709Z,100126.50
2023-02-16T07:23:10.203Z,100129.16
2023-02-16T07:24:11.792Z,100125.78
2023-02-16T07:25:13.328Z,100121.72
2023-02-16T07:26:14.845Z,100127.53
2023-02-16T07:27:16.434Z,100134.72
2023-02-16T07:28:18.307Z,100126.94
2023-02-16T07:29:19.997Z,100117.81
2023-02-16T07:30:21.949Z,100122.25
2023-02-16T07:31:23.602Z,100114.19
2023-02-16T07:32:25.292Z,100117.63
2023-02-16T07:33:26.804Z,100115.88
2023-02-16T07:34:28.287Z,100114.97
2023-02-16T07:35:29.852Z,100121.78
2023-02-16T07:36:31.428Z,100115.63
2023-02-16T07:37:32.964Z,100114.59
2023-02-16T07:38:34.828Z,100120.13
2023-02-16T07:39:36.362Z,100117.75
2023-02-16T07:40:38.015Z,100119.06
2023-02-16T07:41:39.503Z,100112.69
2023-02-16T07:42:42.692Z,100117.91
2023-02-16T07:43:44.199Z,100119.00
2023-02-16T07:44:45.716Z,100119.38
2023-02-16T07:45:47.344Z,100110.91
2023-02-16T07:46:48.968Z,100109.88
2023-02-16T07:47:50.445Z,100108.28
2023-02-16T07:48:51.861Z,100117.09
2023-02-16T07:49:53.419Z,100117.25
2023-02-16T07:50:54.980Z,100120.63
2023-02-16T07:51:56.540Z,100122.97
2023-02-16T07:52:58.097Z,100119.53
2023-02-16T07:54:00.043Z,100125.03
2023-02-16T07:55:01.681Z,100119.97
2023-02-16T07:56:03.349Z,100116.41
2023-02-16T07:57:04.943Z,100116.06
2023-02-16T07:58:07.125Z,100115.09
2023-02-16T07:59:08.624Z,100110.63
2023-02-16T08:00:10.905Z,100114.91
2023-02-16T08:01:16.033Z,100116.50
2023-02-16T08:02:17.653Z,100114.97
2023-02-16T08:03:19.399Z,100118.50
2023-02-16T08:04:21.002Z,100112.59
2023-02-16T08:05:22.821Z,100119.00
2023-02-16T08:06:24.474Z,100110.09
2023-02-16T08:07:26.452Z,100116.63
2023-02-16T08:08:32.340Z,100119.94
2023-02-16T08:09:33.919Z,100115.78
2023-02-16T08:10:35.528Z,100122.16
2023-02-16T08:11:37.036Z,100111.81
2023-02-16T08:12:38.520Z,100110.97
2023-02-16T08:13:39.935Z,100118.72
2023-02-16T08:14:41.945Z,100123.94
2023-02-16T08:15:43.864Z,100125.22
2023-02-16T08:16:45.412Z,100127.31
2023-02-16T08:17:46.985Z,100124.47
2023-02-16T08:18:48.658Z,100124.91
2023-02-16T08:19:50.559Z,100127.28
2023-02-16T08:21:03.652Z,100123.78
2023-02-16T08:22:07.314Z,100123.97
2023-02-16T08:23:08.813Z,100124.22
2023-02-16T08:24:12.391Z,100120.03
2023-02-16T08:25:13.872Z,100122.16
2023-02-16T08:26:16.906Z,100113.63
2023-02-16T08:27:18.418Z,100123.97
2023-02-16T08:28:19.891Z,100125.59
2023-02-16T08:29:23.545Z,100116.44
2023-02-16T08:30:25.120Z,100117.59
2023-02-16T08:31:28.908Z,100118.59
2023-02-16T08:32:30.531Z,100110.22
2023-02-16T08:33:33.847Z,100115.22
2023-02-16T08:34:35.412Z,100117.13
2023-02-16T08:35:38.225Z,100128.56
2023-02-16T08:36:40.933Z,100124.44
2023-02-16T08:37:42.435Z,100130.44
2023-02-16T08:38:44.003Z,100126.00
2023-02-16T08:39:45.560Z,100128.38
2023-02-16T08:40:50.769Z,100134.38
2023-02-16T08:41:53.015Z,100134.59
2023-02-16T08:42:54.563Z,100136.19
2023-02-16T08:43:56.256Z,100134.75
2023-02-16T08:44:57.810Z,100137.16
2023-02-16T08:45:59.379Z,100136.00
2023-02-16T08:47:00.971Z,100140.88
2023-02-16T08:48:02.544Z,100144.88
2023-02-16T08:49:04.056Z,100136.38
2023-02-16T08:50:06.173Z,100136.59
2023-02-16T08:51:07.962Z,100147.34
2023-02-16T08:52:09.448Z,100144.56
2023-02-16T08:53:10.949Z,100141.88
2023-02-16T08:54:22.575Z,100144.44
2023-02-16T08:55:24.146Z,100142.34
2023-02-16T08:56:26.359Z,100146.88
2023-02-16T08:57:27.876Z,100137.13
2023-02-16T08:58:31.054Z,100141.34
2023-02-16T08:59:32.687Z,100135.81
2023-02-16T09:00:34.227Z,100139.34
2023-02-16T09:01:35.773Z,100138.13
2023-02-16T09:02:37.430Z,100142.81
2023-02-16T09:03:40.253Z,100132.97
2023-02-16T09:04:41.785Z,100143.88
2023-02-16T09:05:43.307Z,100140.66
2023-02-16T09:06:46.213Z,100143.56
2023-02-16T09:07:47.727Z,100141.97
2023-02-16T09:08:53.997Z,100137.53
2023-02-16T09:09:55.494Z,100142.06
2023-02-16T09:11:05.386Z,100144.50
2023-02-16T09:12:07.154Z,100138.81
2023-02-16T09:13:08.781Z,100141.44
2023-02-16T09:14:10.528Z,100135.88
2023-02-16T09:15:12.066Z,100133.19
2023-02-16T09:16:19.815Z,100129.84
2023-02-16T09:17:21.464Z,100132.56
2023-02-16T09:18:22.993Z,100133.50
2023-02-16T09:19:24.499Z,100128.28
2023-02-16T09:20:26.191Z,100134.44
2023-02-16T09:21:29.288Z,100134.53
2023-02-16T09:22:30.835Z,100133.59
2023-02-16T09:23:33.956Z,100134.66
2023-02-16T09:24:35.476Z,100135.44
2023-02-16T09:25:38.979Z,100132.94
2023-02-16T09:26:40.545Z,100137.03
2023-02-16T09:27:42.112Z,100135.69
2023-02-16T09:28:44.469Z,100139.91
2023-02-16T09:29:45.972Z,100136.22
2023-02-16T09:30:47.562Z,100144.34
2023-02-16T09:31:49.133Z,100134.69
2023-02-16T09:32:50.769Z,100134.38
2023-02-16T09:33:54.458Z,100132.53
2023-02-16T09:34:56.257Z,100135.59
2023-02-16T09:35:57.777Z,100128.38
2023-02-16T09:36:59.320Z,100126.00
2023-02-16T09:38:00.958Z,100138.38
2023-02-16T09:39:02.473Z,100134.53
2023-02-16T09:40:04.334Z,100138.66
2023-02-16T09:41:22.963Z,100132.00
2023-02-16T09:42:35.044Z,100143.13
2023-02-16T09:43:49.385Z,100135.91
2023-02-16T09:45:08.336Z,100131.50
2023-02-16T09:46:13.825Z,100132.22
2023-02-16T09:47:28.451Z,100131.81
2023-02-16T09:48:37.234Z,100121.78
2023-02-16T09:49:42.822Z,100120.72
2023-02-16T09:50:53.807Z,100124.16
2023-02-16T09:52:04.884Z,100121.25
2023-02-16T09:53:14.692Z,100119.25
2023-02-16T09:54:32.487Z,100125.22
2023-02-16T09:55:51.729Z,100122.63
2023-02-16T09:56:57.803Z,100121.78
2023-02-16T09:58:17.582Z,100118.50
2023-02-16T09:59:39.305Z,100117.09
2023-02-16T10:00:47.600Z,100114.13
2023-02-16T10:02:33.442Z,100112.19
2023-02-16T10:04:14.825Z,100119.81
2023-02-16T10:05:25.386Z,100117.63
2023-02-16T10:06:41.794Z,100124.41
2023-02-16T10:08:06.248Z,100121.47
2023-02-16T10:09:12.568Z,100120.41
2023-02-16T10:10:20.805Z,100119.19
2023-02-16T10:11:34.692Z,100117.56
2023-02-16T10:12:46.881Z,100126.47
2023-02-16T10:13:53.696Z,100129.84
2023-02-16T10:15:06.985Z,100127.00
2023-02-16T10:16:16.457Z,100128.53
2023-02-16T10:17:34.065Z,100127.78
2023-02-16T10:18:40.697Z,100121.97
2023-02-16T10:20:14.295Z,100121.97
2023-02-16T10:21:24.063Z,100129.22
2023-02-16T10:22:34.787Z,100116.56
2023-02-16T10:23:53.872Z,100116.34
2023-02-16T10:25:20.056Z,100121.94
2023-02-16T10:26:37.139Z,100113.19
2023-02-16T10:27:44.966Z,100116.56
2023-02-16T10:28:58.512Z,100111.50
2023-02-16T10:30:00.104Z,100111.88
2023-02-16T10:31:13.146Z,100109.50
2023-02-16T10:32:24.812Z,100105.97
2023-02-16T10:33:45.632Z,100097.97
2023-02-16T10:34:47.098Z,100100.53
2023-02-16T10:35:49.883Z,100106.44
2023-02-16T10:37:23.916Z,100099.84
2023-02-16T10:38:38.589Z,100090.38
2023-02-16T10:39:51.768Z,100086.78
2023-02-16T10:41:28.435Z,100085.69
2023-02-16T10:42:36.967Z,100082.84
2023-02-16T10:43:58.143Z,100080.91
2023-02-16T10:45:22.701Z,100078.44
2023-02-16T10:46:34.237Z,100074.59
2023-02-16T10:47:42.531Z,100074.13
2023-02-16T10:48:45.056Z,100072.84
2023-02-16T10:49:46.941Z,100067.97
2023-02-16T10:51:00.582Z,100070.47
2023-02-16T10:52:03.571Z,100063.91
2023-02-16T10:53:37.482Z,100070.81
2023-02-16T10:54:39.469Z,100067.13
2023-02-16T10:55:41.252Z,100067.03
2023-02-16T10:57:01.589Z,100061.66
2023-02-16T10:58:03.148Z,100066.81
2023-02-16T10:59:07.820Z,100059.63
2023-02-16T11:00:16.511Z,100063.03
2023-02-16T11:01:21.722Z,100058.38
2023-02-16T11:02:38.862Z,100058.22
2023-02-16T11:03:45.921Z,100054.16
2023-02-16T11:04:49.754Z,100052.22
2023-02-16T11:05:52.454Z,100044.16
2023-02-16T11:07:12.991Z,100045.09
2023-02-16T11:08:14.588Z,100044.81
2023-02-16T11:09:16.147Z,100043.19
2023-02-16T11:10:30.765Z,100052.81
2023-02-16T11:11:40.918Z,100042.25
2023-02-16T11:12:42.472Z,100043.63
2023-02-16T11:13:48.044Z,100050.47
2023-02-16T11:14:52.853Z,100046.97
2023-02-16T11:15:57.774Z,100042.72
2023-02-16T11:17:12.763Z,100044.81
2023-02-16T11:18:56.750Z,100043.88
2023-02-16T11:20:02.374Z,100042.88
2023-02-16T11:21:04.995Z,100038.09
2023-02-16T11:22:07.598Z,100037.94
2023-02-16T11:23:24.634Z,100036.75
2023-02-16T11:24:35.037Z,100036.59
2023-02-16T11:25:36.556Z,100039.28
2023-02-16T11:26:38.455Z,100030.00
2023-02-16T11:27:50.197Z,100031.63
2023-02-16T11:28:52.009Z,100033.91
2023-02-16T11:30:14.850Z,100030.25
2023-02-16T11:31:33.332Z,100030.50
2023-02-16T11:32:34.958Z,100033.53
2023-02-16T11:33:37.306Z,100037.53
2023-02-16T11:34:51.051Z,100035.97
2023-02-16T11:35:53.498Z,100034.81
2023-02-16T11:37:22.145Z,100026.47
2023-02-16T11:38:35.728Z,100025.72
2023-02-16T11:39:40.030Z,100029.44
2023-02-16T11:40:41.771Z,100027.09
2023-02-16T11:42:06.584Z,100027.97
2023-02-16T11:43:18.197Z,100028.03
2023-02-16T11:44:48.725Z,100029.44
2023-02-16T11:46:05.214Z,100018.63
2023-02-16T11:47:29.740Z,100024.88
2023-02-16T11:48:33.167Z,100015.75
2023-02-16T11:49:38.929Z,100010.66
2023-02-16T11:50:56.480Z,100011.22
2023-02-16T11:51:58.842Z,100006.41
2023-02-16T11:53:09.339Z,100014.31
2023-02-16T11:54:17.909Z,100006.31
2023-02-16T11:55:29.586Z,100015.06
2023-02-16T11:56:34.106Z,100006.31
2023-02-16T11:57:36.030Z,100006.50
2023-02-16T11:58:37.728Z,100002.56
2023-02-16T11:59:39.936Z,99996.47
2023-02-16T12:01:16.801Z,99994.72
2023-02-16T12:02:36.326Z,100005.00
2023-02-16T12:03:50.276Z,99999.16
2023-02-16T12:04:54.616Z,100005.06
2023-02-16T12:06:10.432Z,100003.56
2023-02-16T12:07:30.430Z,100007.78
2023-02-16T12:09:16.653Z,99996.13
2023-02-16T12:10:28.770Z,99998.66
2023-02-16T12:11:40.554Z,99998.66
2023-02-16T12:12:48.496Z,99991.75
2023-02-16T12:14:18.976Z,99993.34
2023-02-16T12:15:20.395Z,99988.94
2023-02-16T12:16:24.577Z,99990.91
2023-02-16T12:17:35.207Z,99996.22
2023-02-16T12:18:58.940Z,99992.94
2023-02-16T12:20:46.588Z,99991.91
2023-02-16T12:21:52.897Z,99990.13
2023-02-16T12:23:34.906Z,99989.13
2023-02-16T12:25:06.906Z,99975.53
2023-02-16T12:26:23.439Z,99975.38
2023-02-16T12:27:50.902Z,99978.91
2023-02-16T12:29:02.691Z,99973.94
2023-02-16T12:30:09.953Z,99974.94
2023-02-16T12:31:14.392Z,99967.97